CheckWX is a tool to help pilots better visualize weather data.  It is not intended as a substitute for an official pre-flight weather briefing.

03:27:26 UTC

FBFT METAR
Francistown Airport
Francistown, Botswana
Current

8 hours ago

FBFT 181900Z 14003KT CAVOK 13/01 Q1029
Observed
Jun-18 @ 19:00 UTC
Wind
  • 140° at 3 KTS
Visibility
10,000+ meters
Flight Rules
VFR
Cloud Levels
  • Clear skies
Temperature
13°C / 55°F
Dewpoint
C / 34°F
Humidity
44%
Altimeter
30.38" Hg
Pressure
1028.92 hPa
Previous

9 hours ago

FBFT 181800Z 10003KT 060V180 CAVOK 14/01 Q1028
Observed
Jun-18 @ 18:00 UTC
Wind
  • 100° at 3 KTS
Visibility
10,000+ meters
Flight Rules
VFR
Cloud Levels
  • Clear skies
Temperature
14°C / 57°F
Dewpoint
C / 34°F
Humidity
41%
Altimeter
30.35" Hg
Pressure
1027.92 hPa
Previous

10 hours ago

FBFT 181700Z 12004KT CAVOK 15/01 Q1027
Observed
Jun-18 @ 17:00 UTC
Wind
  • 120° at 4 KTS
Visibility
10,000+ meters
Flight Rules
VFR
Cloud Levels
  • Clear skies
Temperature
15°C / 59°F
Dewpoint
C / 34°F
Humidity
39%
Altimeter
30.32" Hg
Pressure
1026.92 hPa